Domov               UVHVVR             MKGP            O straneh              
ZDRAVSTVENO VARSTVO RASTLIN
  MREŽA AGROMET. POSTAJ
 ► PROGNOSTIČNA OBVESTILA
AGROMETEOROLOŠKI PODATKI -
ARSO
OBVLADOVANJE TVEGANJ ZARADI
NEUGODNIH VREMENSKIH RAZMER
  ► NARAVNE NESREČE
  ► SUŠA/MOČA
  ► NAMAKANJE
  ► ŽLED (gozdarstvo)
KARTOGRAFSKI PRIKAZI
SPLETNE POVEZAVE
PROJEKTI IN PUBLIKACIJE

AGROMETEOROLOŠKA MREŽA: VREMENSKE POSTAJE IN FENOLOŠKA OPAZOVANJA

Pregled podatkov za lokacijo Radlje ob Dravi, meteorološka postaja 857248

Pregled senzorjev na lokaciji

ID Ime Zadnja
vrednost
Datum
zadnje
spremembe
Tip
senzorja
3912 Temperatura 2 m ( °C) 23,88 °C 17.8.2017 19:00 50YA
3913 Relativna vlaga 2 m (% RH) 68,94 % RH 17.8.2017 19:00 50YA
3914 Omočenost lista (U) 0 U 17.8.2017 19:00 A730WET
3915 Hitrost vetra (km/h) 1,27 km/h 17.8.2017 19:00 566.2S-176 (200km/h)
3916 Padavine 0.2 mm (mm) 0 mm 17.8.2017 19:00 Rain-O-Matic
3917 Smer vetra (°) 16,44 ° 17.8.2017 19:00 566.2S-130

Pregled podatkov zadnjih 24 ur

Zap.
št.
Datum in čas Radlje ob Dravi
Hitrost
vetra
Omočenost
lista
Padavine
0.2
mm
Relativna
vlaga
2
m
Smer
vetra
Temperatura
2
m
0 17.8.2017 18:00 1,27 0 0 68,94 16,44 23,88
1 17.8.2017 17:30 0,93 0 0 57,14 309,54 26,84
2 17.8.2017 17:00 0,85 0 0 50,18 50,46 28,96
3 17.8.2017 16:30 0,76 0 0 44,78 308,67 29,83
4 17.8.2017 16:00 1,15 0 0 43,86 14,61 30,81
5 17.8.2017 15:30 1,24 0 0 48,51 240,24 30,13
6 17.8.2017 15:00 1,1 0 0 53,41 265,6 29,08
7 17.8.2017 14:30 1,09 0 0 54,65 172,52 28,28
8 17.8.2017 14:00 1,31 0 0 57,6 127,83 27,91
9 17.8.2017 13:30 1,25 0 0 60,02 146,91 27,57
10 17.8.2017 13:00 1,7 0 0 63,85 115,5 26,36
11 17.8.2017 12:30 1,82 0 0 63,8 123,83 25,61
12 17.8.2017 12:00 3,35 0 0 66,29 259,43 24,49
13 17.8.2017 11:30 4,61 0 0 68,91 233,67 23,48
14 17.8.2017 11:00 2,71 0 0 72,72 313,88 22,58
15 17.8.2017 10:30 2,52 0 0 74,96 284,33 21,95
16 17.8.2017 10:00 3,61 0 0 77,65 334,88 21,16
17 17.8.2017 09:30 1,84 0 0 80,79 264,14 20,81
18 17.8.2017 09:00 1,79 0 0 98,52 247,98 19
19 17.8.2017 08:30 1,32 0 0 100 285,14 18,33
20 17.8.2017 08:00 0,52 0 0 100 309,27 17,77
21 17.8.2017 07:30 0,5 0 0 100 213,47 17,29
22 17.8.2017 07:00 0,48 0 0 100 213,57 16,87
23 17.8.2017 06:30 0,54 0 0 100 213,57 16,46
24 17.8.2017 06:00 0,47 0 0 100 213,53 16,31
25 17.8.2017 05:30 0,47 0 0 100 172,31 16,3
26 17.8.2017 05:00 0,49 0 0 100 126,38 16,26
27 17.8.2017 04:30 0,49 0 0 100 126,38 16,18
28 17.8.2017 04:00 0,6 0 0 100 136,28 16,26
29 17.8.2017 03:30 0,47 0 0 100 205,69 16,27
30 17.8.2017 03:00 0,49 0 0 100 222,93 16,31
31 17.8.2017 02:30 0,47 0 0 100 274,78 16,4
32 17.8.2017 02:00 0,47 0 0 100 274,78 16,35
33 17.8.2017 01:30 0,47 0 0 100 274,78 16,24
34 17.8.2017 01:00 0,5 0 0 100 274,78 16,27
35 17.8.2017 00:30 0,49 0 0 100 279,63 16,3
36 17.8.2017 00:00 0,49 0 0 100 294,21 16,26
37 16.8.2017 23:30 0,47 0 0 100 294,21 16,37
38 16.8.2017 23:00 0,47 0 0 100 294,23 16,5
39 16.8.2017 22:30 0,5 0 0 100 41,69 16,55
40 16.8.2017 22:00 0,48 0 0 100 41,7 16,53
41 16.8.2017 21:30 0,47 0 0 100 41,7 16,4
42 16.8.2017 21:00 0,48 0 0 100 41,7 16,4
43 16.8.2017 20:30 0,55 0 0 100 41,67 16,61
44 16.8.2017 20:00 0,5 0,2 100 60,52 16,86
45 16.8.2017 19:30 0,47 0,4 100 60,55 16,78
© 2011 Ministrstvo za kmetijstvo, gozdarstvo in prehrano. Vse pravice pridržane.